Time;durP1;ratioP1;P1;durP2;ratioP2;P2;SDS_P1;SDS_P2;PMS_P1;PMS_P2;Temp;Humidity;BMP_temperature;BMP_pressure;BME280_temperature;BME280_humidity;BME280_pressure;Samples;Min_cycle;Max_cycle;Signal;HPM_P1;HPM_P2
2023/01/27 00:00:33;;;;;;;29.00;11.60;;;1.50;99.90;;;;;;4770579;30;20507;-80
2023/01/27 00:02:58;;;;;;;44.57;12.97;;;1.50;99.90;;;;;;4771209;30;20191;-80
2023/01/27 00:05:25;;;;;;;32.70;11.33;;;1.50;99.90;;;;;;4771636;30;20257;-81
2023/01/27 00:07:51;;;;;;;30.07;11.60;;;1.50;99.90;;;;;;4770276;30;20199;-80
2023/01/27 00:10:18;;;;;;;31.77;10.87;;;1.50;99.90;;;;;;4771459;30;20503;-81
2023/01/27 00:15:31;;;;;;;34.30;11.30;;;1.50;99.90;;;;;;4770781;30;20203;-81
2023/01/27 00:17:57;;;;;;;29.67;11.27;;;1.50;99.90;;;;;;4770680;30;20235;-83
2023/01/27 00:26:05;;;;;;;26.33;10.77;;;1.50;99.90;;;;;;4771319;30;20245;-80
2023/01/27 00:28:31;;;;;;;26.23;10.73;;;1.60;99.90;;;;;;4771057;30;20525;-80
2023/01/27 00:30:58;;;;;;;25.17;10.60;;;1.60;99.90;;;;;;4770920;30;20192;-81
2023/01/27 00:33:28;;;;;;;26.50;10.10;;;1.60;99.90;;;;;;4770717;30;20597;-80
2023/01/27 00:35:58;;;;;;;28.03;10.47;;;1.60;99.90;;;;;;4771197;30;20202;-81
2023/01/27 00:38:25;;;;;;;24.23;10.20;;;1.60;99.90;;;;;;4769867;30;20282;-80
2023/01/27 00:43:35;;;;;;;27.37;9.93;;;1.70;99.90;;;;;;4770831;30;20187;-82
2023/01/27 00:46:00;;;;;;;31.53;10.50;;;1.70;99.90;;;;;;4771021;30;20255;-82
2023/01/27 00:48:26;;;;;;;28.43;10.37;;;1.60;99.90;;;;;;4770491;30;20234;-83
2023/01/27 00:50:52;;;;;;;22.10;9.60;;;1.60;99.90;;;;;;4771099;30;20673;-81
2023/01/27 00:53:18;;;;;;;23.43;9.63;;;1.60;99.90;;;;;;4770695;30;20619;-81
2023/01/27 00:55:46;;;;;;;23.80;10.33;;;1.60;99.90;;;;;;4769706;30;20557;-81
2023/01/27 00:58:12;;;;;;;25.33;9.67;;;1.60;99.90;;;;;;4770665;30;20208;-80
2023/01/27 01:00:38;;;;;;;28.80;10.23;;;1.60;99.90;;;;;;4770946;30;20191;-82
2023/01/27 01:03:03;;;;;;;21.97;8.97;;;1.70;99.90;;;;;;4770280;30;20525;-82
2023/01/27 01:05:29;;;;;;;27.20;9.27;;;1.80;99.90;;;;;;4770866;30;20537;-81
2023/01/27 01:07:54;;;;;;;24.70;9.57;;;1.80;99.90;;;;;;4770692;30;20403;-83
2023/01/27 01:10:20;;;;;;;24.93;9.57;;;1.80;99.90;;;;;;4769470;30;20185;-83
2023/01/27 01:12:46;;;;;;;23.40;9.43;;;1.80;99.90;;;;;;4770341;30;20188;-81
2023/01/27 01:15:11;;;;;;;22.73;8.80;;;1.80;99.90;;;;;;4770857;30;20175;-81
2023/01/27 01:17:37;;;;;;;17.83;8.80;;;1.80;99.90;;;;;;4770603;30;20284;-80
2023/01/27 01:20:03;;;;;;;26.70;9.37;;;1.80;99.90;;;;;;4770471;30;20214;-80
2023/01/27 01:22:28;;;;;;;22.73;9.53;;;1.80;99.90;;;;;;4770449;30;20228;-81
2023/01/27 01:24:54;;;;;;;21.07;9.17;;;1.80;99.90;;;;;;4770578;30;20188;-82
2023/01/27 01:27:20;;;;;;;23.90;9.07;;;1.80;99.90;;;;;;4770549;30;20183;-80
2023/01/27 01:29:45;;;;;;;20.23;9.73;;;1.90;99.90;;;;;;4770564;30;20565;-80
2023/01/27 01:32:11;;;;;;;21.70;9.33;;;1.90;99.90;;;;;;4770478;30;20211;-80
2023/01/27 01:34:37;;;;;;;19.00;9.03;;;1.90;99.90;;;;;;4770110;30;20184;-80
2023/01/27 01:37:03;;;;;;;20.53;8.60;;;1.90;99.90;;;;;;4770371;30;20208;-81
2023/01/27 01:39:30;;;;;;;24.30;9.03;;;1.90;99.90;;;;;;4769202;30;20237;-80
2023/01/27 01:41:56;;;;;;;23.80;9.27;;;2.00;99.90;;;;;;4770299;30;20269;-80
2023/01/27 01:44:27;;;;;;;23.23;9.10;;;2.00;99.90;;;;;;4772932;30;20207;-80
2023/01/27 01:46:53;;;;;;;25.20;9.13;;;2.00;99.90;;;;;;4774032;30;20169;-80
2023/01/27 01:49:24;;;;;;;21.33;8.20;;;2.00;99.90;;;;;;4773419;30;20927;-80
2023/01/27 01:51:57;;;;;;;21.00;8.83;;;2.00;99.90;;;;;;4773746;30;20538;-80
2023/01/27 01:54:28;;;;;;;21.37;9.10;;;2.10;99.90;;;;;;4773708;30;20176;-80
2023/01/27 01:57:11;;;;;;;26.37;9.70;;;2.00;99.90;;;;;;4773722;30;20529;-80
2023/01/27 01:59:59;;;;;;;21.87;9.27;;;2.10;99.90;;;;;;4773756;30;20172;-80
2023/01/27 02:02:25;;;;;;;22.83;9.07;;;2.10;99.90;;;;;;4773335;30;20194;-80
2023/01/27 02:05:03;;;;;;;26.60;9.87;;;2.10;99.90;;;;;;4773447;30;20188;-80
2023/01/27 02:07:43;;;;;;;20.00;8.93;;;2.00;99.90;;;;;;4773641;30;20188;-80
2023/01/27 02:10:11;;;;;;;25.30;9.53;;;2.00;99.90;;;;;;4773628;30;20249;-80
2023/01/27 02:12:36;;;;;;;24.37;8.63;;;2.00;99.90;;;;;;4772996;30;20245;-80
2023/01/27 02:15:06;;;;;;;23.97;8.83;;;2.00;99.90;;;;;;4773351;30;20246;-80
2023/01/27 02:17:32;;;;;;;25.80;9.57;;;2.00;99.90;;;;;;4773051;30;20625;-80
2023/01/27 02:20:17;;;;;;;22.83;9.20;;;2.00;99.90;;;;;;4773185;30;20263;-80
2023/01/27 02:22:50;;;;;;;23.43;8.93;;;2.10;99.90;;;;;;4772175;30;20191;-80
2023/01/27 02:25:23;;;;;;;23.20;9.03;;;2.10;99.90;;;;;;4773103;30;20267;-80
2023/01/27 02:27:48;;;;;;;21.67;9.17;;;2.10;99.90;;;;;;4773214;30;20180;-80
2023/01/27 02:30:14;;;;;;;20.07;8.93;;;2.20;99.90;;;;;;4773205;30;20617;-80
2023/01/27 02:32:40;;;;;;;23.17;9.40;;;2.20;99.90;;;;;;4772841;30;20313;-79
2023/01/27 02:35:10;;;;;;;21.97;8.87;;;2.20;99.90;;;;;;4772867;30;20184;-80
2023/01/27 02:37:37;;;;;;;22.70;9.33;;;2.20;99.90;;;;;;4772932;30;20223;-80
2023/01/27 02:40:04;;;;;;;19.83;9.07;;;2.20;99.90;;;;;;4772948;30;20214;-80
2023/01/27 02:42:30;;;;;;;16.73;8.53;;;2.20;99.90;;;;;;4772453;30;20521;-80
2023/01/27 02:44:56;;;;;;;20.87;8.70;;;2.10;99.90;;;;;;4772994;30;20271;-81
2023/01/27 02:47:21;;;;;;;20.73;9.00;;;2.20;99.90;;;;;;4772879;30;20165;-81
2023/01/27 02:49:48;;;;;;;16.23;8.60;;;2.10;99.90;;;;;;4772346;30;20235;-80
2023/01/27 02:52:14;;;;;;;20.57;8.50;;;2.10;99.90;;;;;;4772771;30;20187;-80
2023/01/27 02:54:40;;;;;;;21.83;9.23;;;2.20;99.90;;;;;;4772490;30;20180;-80
2023/01/27 02:57:06;;;;;;;17.40;8.60;;;2.20;99.90;;;;;;4772588;30;20208;-80
2023/01/27 02:59:31;;;;;;;17.77;8.00;;;2.20;99.90;;;;;;4772840;30;20245;-80
2023/01/27 03:01:57;;;;;;;21.87;8.27;;;2.30;99.90;;;;;;4772481;30;20192;-80
2023/01/27 03:04:23;;;;;;;23.27;8.60;;;2.20;99.90;;;;;;4772476;30;20188;-79
2023/01/27 03:06:48;;;;;;;17.07;8.03;;;2.20;99.90;;;;;;4771318;30;20640;-80
2023/01/27 03:09:14;;;;;;;17.17;7.37;;;2.20;99.90;;;;;;4772361;30;20180;-79
2023/01/27 03:19:52;;;;;;;16.60;7.23;;;2.30;99.90;;;;;;4754364;30;20179;-80
2023/01/27 03:24:53;;;;;;;13.57;7.17;;;2.50;99.90;;;;;;4803343;24;20238;-80
2023/01/27 03:27:19;;;;;;;14.67;7.37;;;2.50;99.90;;;;;;4790351;29;20217;-81
2023/01/27 03:30:02;;;;;;;13.43;6.70;;;2.50;99.90;;;;;;4789452;29;20521;-81
2023/01/27 03:32:30;;;;;;;14.73;7.30;;;2.50;99.90;;;;;;4790489;29;20225;-80
2023/01/27 03:34:56;;;;;;;13.50;7.73;;;2.50;99.90;;;;;;4790274;29;20659;-81
2023/01/27 03:48:32;;;;;;;13.93;6.37;;;2.50;99.90;;;;;;4790103;30;20638;-80
2023/01/27 03:51:03;;;;;;;10.90;6.33;;;2.60;99.90;;;;;;4790136;29;20190;-80
2023/01/27 03:53:29;;;;;;;12.10;6.67;;;2.60;99.90;;;;;;4789730;29;20191;-80
2023/01/27 03:55:54;;;;;;;8.67;5.77;;;2.50;99.90;;;;;;4790280;29;20184;-80
2023/01/27 03:58:35;;;;;;;9.37;5.47;;;2.50;99.90;;;;;;4789928;29;20258;-80
2023/01/27 04:01:27;;;;;;;9.90;5.50;;;2.50;99.90;;;;;;4788766;29;20187;-81
2023/01/27 04:09:28;;;;;;;8.13;4.47;;;2.50;99.90;;;;;;4789799;30;20684;-81
2023/01/27 04:11:59;;;;;;;9.23;5.27;;;2.50;99.90;;;;;;4789731;29;20186;-81
2023/01/27 04:14:36;;;;;;;10.90;6.23;;;2.50;99.90;;;;;;4789747;29;20225;-81
2023/01/27 04:17:13;;;;;;;8.73;5.27;;;2.40;99.90;;;;;;4789941;29;20211;-81
2023/01/27 04:19:39;;;;;;;11.50;5.27;;;2.40;99.90;;;;;;4789674;29;20236;-81
2023/01/27 04:22:06;;;;;;;11.63;5.40;;;2.40;99.90;;;;;;4789866;29;20179;-80
2023/01/27 04:24:32;;;;;;;9.27;5.60;;;2.40;99.90;;;;;;4789160;29;20239;-81
2023/01/27 04:27:00;;;;;;;9.60;5.30;;;2.50;99.90;;;;;;4789656;29;20236;-81
2023/01/27 04:29:28;;;;;;;11.10;5.03;;;2.40;99.90;;;;;;4789443;29;20575;-81
2023/01/27 04:31:56;;;;;;;9.77;4.93;;;2.50;99.90;;;;;;4789490;29;20261;-81
2023/01/27 04:34:22;;;;;;;10.63;5.60;;;2.50;99.90;;;;;;4787767;29;20187;-82
2023/01/27 04:36:48;;;;;;;9.73;5.50;;;2.40;99.90;;;;;;4789048;29;20205;-84
2023/01/27 04:39:16;;;;;;;6.87;4.63;;;2.50;99.90;;;;;;4788435;29;20286;-81
2023/01/27 04:41:44;;;;;;;9.40;4.80;;;2.50;99.90;;;;;;4788909;29;20615;-82
2023/01/27 04:44:11;;;;;;;9.10;4.87;;;2.50;99.90;;;;;;4788883;29;20225;-81
2023/01/27 04:46:40;;;;;;;8.13;4.63;;;2.50;99.90;;;;;;4787771;29;20284;-80
2023/01/27 04:49:07;;;;;;;9.37;4.67;;;2.50;99.90;;;;;;4788935;29;20171;-84
2023/01/27 04:51:33;;;;;;;11.70;5.40;;;2.60;99.90;;;;;;4788077;29;20195;-84
2023/01/27 04:53:58;;;;;;;9.90;5.43;;;2.50;99.90;;;;;;4788387;29;20320;-82
2023/01/27 04:56:27;;;;;;;7.33;4.83;;;2.60;99.90;;;;;;4788748;29;20278;-82
2023/01/27 04:58:54;;;;;;;9.57;4.90;;;2.60;99.90;;;;;;4788848;29;20188;-85
2023/01/27 05:01:20;;;;;;;8.67;5.07;;;2.60;99.90;;;;;;4788662;29;20194;-83
2023/01/27 05:03:45;;;;;;;8.40;4.33;;;2.70;99.90;;;;;;4788474;29;20194;-84
2023/01/27 05:06:12;;;;;;;11.50;4.83;;;2.70;99.90;;;;;;4788586;29;20199;-83
2023/01/27 05:08:38;;;;;;;8.63;4.60;;;2.80;99.90;;;;;;4788364;29;20178;-84
2023/01/27 05:11:04;;;;;;;9.93;4.77;;;2.70;99.90;;;;;;4788803;29;20270;-84
2023/01/27 05:13:30;;;;;;;6.87;4.87;;;2.70;99.90;;;;;;4788258;29;20186;-83
2023/01/27 05:16:08;;;;;;;7.40;4.33;;;2.80;99.90;;;;;;4788577;30;20199;-83
2023/01/27 05:18:34;;;;;;;6.53;4.10;;;2.80;99.90;;;;;;4789003;29;20222;-81
2023/01/27 05:21:01;;;;;;;8.30;4.33;;;2.90;99.90;;;;;;4792378;29;20189;-81
2023/01/27 05:23:35;;;;;;;8.17;4.00;;;2.90;99.90;;;;;;4791839;29;20319;-81
2023/01/27 05:26:07;;;;;;;7.30;3.20;;;3.00;99.90;;;;;;4792200;29;20266;-82
2023/01/27 05:28:34;;;;;;;6.00;3.77;;;3.00;99.90;;;;;;4792034;29;20186;-81
2023/01/27 05:31:09;;;;;;;5.73;3.70;;;3.00;99.90;;;;;;4792104;29;20184;-81
2023/01/27 05:33:35;;;;;;;6.33;3.60;;;3.00;99.90;;;;;;4791615;29;20175;-81
2023/01/27 05:36:02;;;;;;;4.73;3.37;;;3.00;99.90;;;;;;4792001;29;20175;-82
2023/01/27 05:38:29;;;;;;;7.03;3.60;;;3.00;99.90;;;;;;4792009;29;20207;-82
2023/01/27 05:41:00;;;;;;;6.03;3.10;;;3.00;99.90;;;;;;4791847;29;20506;-80
2023/01/27 05:43:27;;;;;;;5.23;3.20;;;3.00;99.90;;;;;;4789620;30;20194;-80
2023/01/27 05:45:59;;;;;;;5.63;3.43;;;3.00;99.90;;;;;;4790673;29;20217;-81
2023/01/27 05:48:25;;;;;;;5.63;3.23;;;3.10;99.90;;;;;;4791404;29;20198;-81
2023/01/27 05:50:57;;;;;;;4.27;3.10;;;3.00;99.90;;;;;;4791745;29;20187;-81
2023/01/27 05:53:23;;;;;;;5.10;3.40;;;3.00;99.90;;;;;;4791341;29;20183;-81
2023/01/27 05:55:50;;;;;;;4.93;3.40;;;3.10;99.90;;;;;;4791547;29;20259;-80
2023/01/27 05:58:16;;;;;;;6.83;3.40;;;3.10;99.90;;;;;;4791586;29;20644;-81
2023/01/27 06:00:43;;;;;;;5.47;3.53;;;3.20;99.90;;;;;;4790201;29;20190;-81
2023/01/27 06:03:08;;;;;;;5.63;3.50;;;3.10;99.90;;;;;;4791032;29;20187;-81
2023/01/27 06:05:34;;;;;;;9.10;3.90;;;3.10;99.90;;;;;;4791529;29;20186;-81
2023/01/27 06:08:00;;;;;;;6.47;3.60;;;3.10;99.90;;;;;;4791403;29;20475;-81
2023/01/27 06:10:25;;;;;;;4.37;3.23;;;3.10;99.90;;;;;;4791327;29;20187;-81
2023/01/27 06:12:51;;;;;;;4.03;2.67;;;3.20;99.90;;;;;;4791081;29;20179;-81
2023/01/27 06:15:17;;;;;;;4.77;3.20;;;3.10;99.90;;;;;;4791334;29;20243;-81
2023/01/27 06:17:42;;;;;;;3.90;2.90;;;3.10;99.90;;;;;;4791000;29;20207;-80
2023/01/27 06:20:09;;;;;;;4.10;2.63;;;3.20;99.90;;;;;;4790967;29;20180;-81
2023/01/27 06:22:34;;;;;;;3.70;2.50;;;3.20;99.90;;;;;;4790652;29;20183;-81
2023/01/27 06:25:00;;;;;;;3.77;2.47;;;3.20;99.90;;;;;;4791124;29;20192;-81
2023/01/27 06:27:25;;;;;;;2.97;2.40;;;3.20;99.90;;;;;;4790835;29;20189;-83
2023/01/27 06:29:51;;;;;;;2.60;1.90;;;3.10;99.90;;;;;;4790687;29;20320;-82
2023/01/27 06:32:17;;;;;;;3.63;2.03;;;3.20;99.90;;;;;;4790126;29;20286;-81
2023/01/27 06:34:42;;;;;;;2.13;1.70;;;3.10;99.90;;;;;;4790502;29;20186;-84
2023/01/27 06:37:08;;;;;;;2.27;1.50;;;3.10;99.90;;;;;;4789903;29;20292;-82
2023/01/27 06:39:34;;;;;;;3.20;1.83;;;3.20;99.90;;;;;;4790228;29;20266;-82
2023/01/27 06:41:59;;;;;;;2.57;1.70;;;3.20;99.90;;;;;;4789430;29;20223;-81
2023/01/27 06:44:25;;;;;;;2.10;1.73;;;3.20;99.90;;;;;;4790642;29;20647;-81
2023/01/27 06:46:52;;;;;;;4.27;1.90;;;3.20;99.90;;;;;;4790748;29;20183;-82
2023/01/27 06:49:18;;;;;;;3.30;2.37;;;3.20;99.90;;;;;;4790554;29;20191;-84
2023/01/27 06:51:44;;;;;;;3.20;2.43;;;3.20;99.90;;;;;;4790657;29;20180;-80
2023/01/27 06:54:10;;;;;;;4.00;2.63;;;3.20;99.90;;;;;;4790653;29;20191;-83
2023/01/27 06:56:35;;;;;;;3.63;2.63;;;3.30;99.90;;;;;;4790524;29;20183;-85
2023/01/27 06:59:01;;;;;;;4.00;2.70;;;3.20;99.90;;;;;;4790810;29;20191;-81
2023/01/27 07:01:27;;;;;;;4.67;2.90;;;3.20;99.90;;;;;;4790498;29;20191;-81
2023/01/27 07:03:52;;;;;;;3.20;2.40;;;3.20;99.90;;;;;;4790123;29;20180;-84
2023/01/27 07:06:19;;;;;;;4.73;2.60;;;3.20;99.90;;;;;;4790372;29;20511;-80
2023/01/27 07:08:46;;;;;;;4.50;2.90;;;3.20;99.90;;;;;;4790571;29;20228;-81
2023/01/27 07:11:12;;;;;;;4.13;2.50;;;3.20;99.90;;;;;;4789148;29;20242;-81
2023/01/27 07:13:38;;;;;;;5.00;2.60;;;3.20;99.90;;;;;;4788922;29;20195;-82
2023/01/27 07:16:07;;;;;;;4.50;2.77;;;3.20;99.90;;;;;;4790355;29;20195;-81
2023/01/27 07:18:32;;;;;;;3.47;2.43;;;3.10;99.90;;;;;;4789989;29;20219;-84
2023/01/27 07:20:58;;;;;;;5.70;2.90;;;3.20;99.90;;;;;;4790154;29;20232;-82
2023/01/27 07:23:24;;;;;;;6.60;2.50;;;3.20;99.90;;;;;;4788364;29;20678;-80
2023/01/27 07:25:49;;;;;;;3.10;2.40;;;3.30;99.90;;;;;;4790012;29;20624;-82
2023/01/27 07:28:15;;;;;;;5.63;2.50;;;3.30;99.90;;;;;;4790101;29;20172;-82
2023/01/27 07:30:42;;;;;;;5.33;2.27;;;3.20;99.90;;;;;;4790063;29;20291;-85
2023/01/27 07:33:10;;;;;;;5.33;2.67;;;3.20;99.90;;;;;;4789569;29;20184;-84
2023/01/27 07:35:37;;;;;;;3.10;2.03;;;3.20;99.90;;;;;;4790119;29;20186;-84
2023/01/27 07:38:04;;;;;;;14.63;7.73;;;3.20;99.90;;;;;;4788891;29;20230;-84
2023/01/27 07:40:30;;;;;;;489.47;212.57;;;3.20;99.90;;;;;;4789200;29;20179;-84
2023/01/27 07:42:59;;;;;;;544.10;228.23;;;3.20;99.90;;;;;;4789598;29;20192;-84
2023/01/27 07:45:25;;;;;;;160.90;95.40;;;3.30;99.90;;;;;;4789756;29;20191;-83
2023/01/27 07:47:51;;;;;;;12.70;10.67;;;3.30;99.90;;;;;;4789674;29;20207;-84
2023/01/27 07:50:17;;;;;;;5.30;4.50;;;3.30;99.90;;;;;;4789571;29;20232;-83
2023/01/27 07:52:42;;;;;;;13.23;11.03;;;3.30;99.90;;;;;;4789362;29;20187;-84
2023/01/27 07:55:08;;;;;;;11.87;5.87;;;3.30;99.90;;;;;;4788326;29;20270;-83
2023/01/27 07:57:34;;;;;;;59.93;21.10;;;3.30;99.90;;;;;;4789540;29;20211;-81
2023/01/27 07:59:59;;;;;;;253.57;99.37;;;3.30;99.90;;;;;;4788419;29;20612;-82
2023/01/27 08:02:27;;;;;;;5.23;3.53;;;3.30;99.90;;;;;;4788036;29;20187;-81
2023/01/27 08:04:53;;;;;;;8.67;7.73;;;3.30;99.90;;;;;;4787902;29;20236;-83
2023/01/27 08:07:19;;;;;;;22.37;16.67;;;3.40;99.90;;;;;;4789329;29;20557;-80
2023/01/27 08:09:44;;;;;;;17.37;15.47;;;3.40;99.90;;;;;;4789504;29;20167;-81
2023/01/27 08:12:10;;;;;;;14.30;12.43;;;3.30;99.90;;;;;;4789311;29;20183;-80
2023/01/27 08:14:36;;;;;;;18.30;16.43;;;3.30;99.90;;;;;;4789254;29;20180;-81
2023/01/27 08:17:01;;;;;;;5.67;3.30;;;3.30;99.90;;;;;;4789139;29;20305;-81
2023/01/27 08:19:27;;;;;;;10.40;8.17;;;3.40;99.90;;;;;;4788228;29;20199;-81
2023/01/27 08:21:53;;;;;;;7.60;4.00;;;3.40;99.90;;;;;;4789060;29;20591;-82
2023/01/27 08:24:18;;;;;;;9.73;5.57;;;3.40;99.90;;;;;;4788648;29;20600;-80
2023/01/27 08:26:44;;;;;;;5.63;3.30;;;3.30;99.90;;;;;;4781081;29;20713;-82
2023/01/27 08:29:10;;;;;;;4.27;1.90;;;3.30;99.90;;;;;;4780272;29;20222;-82
2023/01/27 08:31:35;;;;;;;2.77;1.87;;;3.30;99.90;;;;;;4777858;30;20187;-82
2023/01/27 08:34:01;;;;;;;3.00;1.23;;;3.40;99.90;;;;;;4788504;30;20550;-81
2023/01/27 08:36:27;;;;;;;5.23;1.50;;;3.30;99.90;;;;;;4788980;30;20199;-81
2023/01/27 08:38:52;;;;;;;4.20;1.77;;;3.40;99.90;;;;;;4788958;29;20179;-83
2023/01/27 08:41:25;;;;;;;3.40;1.60;;;3.30;99.90;;;;;;4789035;29;20227;-81
2023/01/27 08:43:53;;;;;;;2.57;1.60;;;3.40;99.90;;;;;;4788686;29;20187;-80
2023/01/27 08:46:18;;;;;;;2.67;1.30;;;3.40;99.90;;;;;;4788781;29;20583;-81
2023/01/27 08:48:44;;;;;;;2.77;1.50;;;3.40;99.90;;;;;;4788175;29;20191;-80
2023/01/27 08:51:12;;;;;;;3.87;2.00;;;3.40;99.90;;;;;;4788592;29;20627;-81
2023/01/27 08:53:39;;;;;;;2.83;1.57;;;3.40;99.90;;;;;;4788188;29;20187;-82
2023/01/27 08:56:07;;;;;;;5.90;2.50;;;3.40;99.90;;;;;;4787426;29;20202;-80
2023/01/27 08:58:33;;;;;;;4.27;1.50;;;3.40;99.90;;;;;;4788606;29;20258;-85
2023/01/27 09:01:01;;;;;;;2.50;1.50;;;3.40;99.90;;;;;;4788424;29;20600;-83
2023/01/27 09:03:27;;;;;;;3.07;1.40;;;3.40;99.90;;;;;;4788061;29;20635;-82
2023/01/27 09:05:53;;;;;;;2.20;1.13;;;3.40;99.90;;;;;;4787387;29;20278;-84
2023/01/27 09:08:19;;;;;;;4.07;1.27;;;3.40;99.90;;;;;;4788681;29;20699;-83
2023/01/27 09:10:44;;;;;;;1.77;1.10;;;3.40;99.90;;;;;;4788543;29;20174;-82
2023/01/27 09:13:10;;;;;;;2.27;1.10;;;3.40;99.90;;;;;;4788219;29;20248;-84
2023/01/27 09:15:36;;;;;;;1.90;1.40;;;3.50;99.90;;;;;;4788449;29;20195;-82
2023/01/27 09:18:03;;;;;;;10.77;3.10;;;3.40;99.90;;;;;;4788431;29;20223;-82
2023/01/27 09:20:29;;;;;;;6.43;3.23;;;3.40;99.90;;;;;;4788410;29;20167;-86
2023/01/27 09:22:55;;;;;;;8.77;4.30;;;3.50;99.90;;;;;;4788154;29;20254;-84
2023/01/27 09:25:21;;;;;;;4.63;2.67;;;3.50;99.90;;;;;;4788423;29;20226;-79
2023/01/27 09:27:47;;;;;;;6.70;3.77;;;3.40;99.90;;;;;;4788310;29;20616;-81
2023/01/27 09:30:14;;;;;;;5.43;2.40;;;3.40;99.90;;;;;;4788260;29;20300;-82
2023/01/27 09:32:41;;;;;;;5.27;2.60;;;3.50;99.90;;;;;;4788263;29;20504;-83
2023/01/27 09:35:07;;;;;;;4.27;3.10;;;3.40;99.90;;;;;;4788151;29;20187;-86
2023/01/27 09:37:53;;;;;;;6.97;3.90;;;3.50;99.90;;;;;;4788366;29;20227;-85
2023/01/27 09:40:29;;;;;;;9.40;5.00;;;3.50;99.90;;;;;;4787451;29;20183;-85
2023/01/27 09:43:01;;;;;;;9.27;4.73;;;3.40;99.90;;;;;;4788057;29;20243;-86
2023/01/27 09:45:42;;;;;;;9.30;5.20;;;3.40;99.90;;;;;;4788331;29;20241;-86
2023/01/27 09:48:30;;;;;;;9.73;5.03;;;3.40;99.90;;;;;;4788513;29;20187;-85
2023/01/27 09:51:29;;;;;;;12.63;6.10;;;3.30;99.90;;;;;;4788230;29;20175;-85
2023/01/27 09:54:06;;;;;;;5.80;3.20;;;3.40;99.90;;;;;;4788205;29;20172;-85
2023/01/27 09:56:58;;;;;;;7.07;4.03;;;3.40;99.90;;;;;;4788339;29;20636;-85
2023/01/27 09:59:52;;;;;;;8.87;4.07;;;3.40;99.90;;;;;;4788186;29;20219;-85
2023/01/27 10:02:32;;;;;;;9.83;5.30;;;3.50;99.90;;;;;;4788177;29;20176;-85
2023/01/27 10:05:40;;;;;;;8.80;4.30;;;3.50;99.90;;;;;;4790068;29;20321;-85
2023/01/27 10:08:05;;;;;;;4.57;1.90;;;3.40;99.90;;;;;;4790909;30;20206;-86
2023/01/27 10:10:43;;;;;;;4.80;2.40;;;3.50;99.90;;;;;;4791684;29;20179;-86
2023/01/27 10:13:16;;;;;;;4.23;2.47;;;3.50;99.90;;;;;;4791360;29;20171;-86
2023/01/27 10:16:19;;;;;;;1.83;1.37;;;3.50;99.90;;;;;;4791502;29;20195;-86
2023/01/27 10:19:06;;;;;;;8.20;3.47;;;3.40;99.90;;;;;;4790996;29;20230;-86
2023/01/27 10:21:47;;;;;;;6.07;2.67;;;3.40;99.90;;;;;;4791399;29;20168;-85
2023/01/27 10:24:50;;;;;;;1.00;0.80;;;3.40;99.90;;;;;;4790862;29;20292;-85
2023/01/27 10:27:21;;;;;;;1.77;0.90;;;3.40;99.90;;;;;;4791430;29;20209;-86
2023/01/27 10:30:02;;;;;;;1.90;1.13;;;3.40;99.90;;;;;;4791237;30;20183;-85
2023/01/27 10:32:47;;;;;;;2.60;1.20;;;3.40;99.90;;;;;;4790965;29;20515;-84
2023/01/27 10:35:19;;;;;;;2.00;0.90;;;3.50;99.90;;;;;;4790750;29;20216;-83
2023/01/27 10:38:07;;;;;;;1.73;0.93;;;3.60;99.90;;;;;;4791049;29;20226;-85
2023/01/27 10:40:32;;;;;;;3.97;1.40;;;3.50;99.90;;;;;;4790998;29;20167;-81
2023/01/27 10:43:09;;;;;;;1.80;0.70;;;3.50;99.90;;;;;;4789272;29;20692;-85
2023/01/27 10:46:15;;;;;;;4.27;1.90;;;3.50;99.90;;;;;;4789640;29;20187;-80
2023/01/27 10:49:06;;;;;;;2.30;1.10;;;3.50;99.90;;;;;;4790579;29;20270;-79
2023/01/27 10:51:34;;;;;;;5.57;1.43;;;3.50;99.90;;;;;;4790559;29;20502;-81
2023/01/27 10:54:05;;;;;;;2.30;1.33;;;3.50;99.90;;;;;;4790600;29;20183;-82
2023/01/27 10:56:34;;;;;;;2.13;0.77;;;3.50;99.90;;;;;;4790658;29;20190;-80
2023/01/27 10:59:09;;;;;;;4.33;1.30;;;3.60;99.90;;;;;;4790789;29;20183;-81
2023/01/27 11:01:42;;;;;;;2.47;1.33;;;3.60;99.90;;;;;;4790484;29;20607;-81
2023/01/27 11:04:28;;;;;;;1.43;0.77;;;3.60;99.90;;;;;;4790079;29;20221;-81
2023/01/27 11:06:55;;;;;;;1.10;0.50;;;3.60;99.90;;;;;;4790604;29;20172;-82
2023/01/27 11:09:33;;;;;;;2.40;1.40;;;3.60;99.90;;;;;;4790611;29;20184;-81
2023/01/27 11:12:09;;;;;;;1.33;0.90;;;3.60;99.90;;;;;;4790459;29;20175;-80
2023/01/27 11:14:51;;;;;;;1.83;1.07;;;3.70;99.90;;;;;;4790379;29;20207;-81
2023/01/27 11:17:30;;;;;;;3.40;1.67;;;3.70;99.90;;;;;;4789720;29;20231;-81
2023/01/27 11:20:22;;;;;;;1.50;0.80;;;3.70;99.90;;;;;;4789521;29;20207;-81
2023/01/27 11:23:05;;;;;;;3.03;1.00;;;3.70;99.90;;;;;;4789664;29;20207;-82
2023/01/27 11:25:42;;;;;;;1.90;0.97;;;3.60;99.90;;;;;;4790598;29;20199;-81
2023/01/27 11:28:32;;;;;;;2.50;0.80;;;3.60;99.90;;;;;;4790307;29;20212;-84
2023/01/27 11:31:15;;;;;;;1.67;1.00;;;3.70;99.90;;;;;;4789961;29;20624;-85
2023/01/27 11:34:06;;;;;;;1.67;1.07;;;3.60;99.90;;;;;;4789611;29;20179;-85
2023/01/27 11:36:33;;;;;;;1.87;1.13;;;3.60;99.90;;;;;;4790284;29;20182;-83
2023/01/27 11:39:03;;;;;;;2.27;1.10;;;3.50;99.90;;;;;;4790078;29;20195;-82
2023/01/27 11:41:32;;;;;;;1.83;1.00;;;3.50;99.90;;;;;;4789897;29;20163;-83
2023/01/27 11:44:02;;;;;;;3.37;1.03;;;3.50;99.90;;;;;;4789752;29;20183;-85
2023/01/27 11:46:30;;;;;;;3.17;1.10;;;3.50;99.90;;;;;;4789957;29;20643;-85
2023/01/27 11:48:57;;;;;;;2.00;1.10;;;3.50;99.90;;;;;;4789805;29;20596;-79
2023/01/27 11:51:25;;;;;;;1.03;0.70;;;3.40;99.90;;;;;;4789934;29;20505;-85
2023/01/27 11:54:16;;;;;;;4.93;2.33;;;3.50;99.90;;;;;;4789449;29;20726;-80
2023/01/27 11:56:45;;;;;;;5.73;2.83;;;3.50;99.90;;;;;;4789285;29;20790;-82
2023/01/27 11:59:23;;;;;;;17.93;9.37;;;3.50;99.90;;;;;;4789956;29;20194;-79
2023/01/27 12:01:57;;;;;;;9.33;5.20;;;3.50;99.90;;;;;;4788393;29;20175;-83
2023/01/27 12:04:33;;;;;;;9.13;4.30;;;3.40;99.90;;;;;;4789186;29;20179;-83
2023/01/27 12:07:05;;;;;;;7.27;4.63;;;3.40;99.90;;;;;;4789306;29;20254;-84
2023/01/27 12:09:38;;;;;;;10.67;7.20;;;3.40;99.90;;;;;;4789537;29;20179;-81
2023/01/27 12:12:25;;;;;;;7.23;3.60;;;3.30;99.90;;;;;;4788159;30;20279;-80
2023/01/27 12:14:54;;;;;;;6.13;3.80;;;3.30;99.90;;;;;;4789357;29;20175;-82
2023/01/27 12:17:31;;;;;;;3.77;1.33;;;3.30;99.90;;;;;;4789333;29;20698;-81
2023/01/27 12:20:19;;;;;;;5.50;1.47;;;3.30;99.90;;;;;;4789137;29;20191;-83
2023/01/27 12:22:49;;;;;;;2.67;1.30;;;3.30;99.90;;;;;;4788861;29;20184;-83
2023/01/27 12:25:23;;;;;;;4.90;1.50;;;3.30;99.90;;;;;;4789135;29;20185;-81
2023/01/27 12:27:53;;;;;;;2.90;1.23;;;3.30;99.90;;;;;;4773404;30;20214;-84
2023/01/27 12:30:26;;;;;;;2.50;1.10;;;3.30;99.90;;;;;;4789229;29;20174;-80
2023/01/27 12:32:53;;;;;;;2.60;1.30;;;3.30;99.90;;;;;;4788981;29;20191;-85
2023/01/27 12:35:32;;;;;;;3.43;1.17;;;3.30;99.90;;;;;;4788803;29;20623;-84
2023/01/27 12:38:19;;;;;;;3.10;0.80;;;3.40;99.90;;;;;;4788540;29;20218;-84
2023/01/27 12:40:46;;;;;;;2.00;0.80;;;3.40;99.90;;;;;;4787435;30;20200;-83
2023/01/27 12:43:19;;;;;;;1.27;0.83;;;3.40;99.90;;;;;;4787619;29;20210;-82
2023/01/27 12:46:21;;;;;;;3.23;1.13;;;3.40;99.90;;;;;;4787349;29;20178;-81
2023/01/27 12:48:50;;;;;;;3.87;1.10;;;3.40;99.90;;;;;;4788200;29;20199;-80
2023/01/27 12:51:18;;;;;;;2.40;1.00;;;3.40;99.90;;;;;;4788788;29;20258;-80
2023/01/27 12:53:44;;;;;;;2.50;1.20;;;3.40;99.90;;;;;;4788010;29;20184;-79
2023/01/27 12:56:22;;;;;;;1.97;0.90;;;3.40;99.90;;;;;;4789025;29;20194;-81
2023/01/27 12:58:53;;;;;;;2.53;1.13;;;3.40;99.90;;;;;;4788040;29;20217;-80
2023/01/27 13:01:19;;;;;;;3.00;1.00;;;3.40;99.90;;;;;;4787627;29;20179;-80
2023/01/27 13:03:49;;;;;;;2.53;1.40;;;3.40;99.90;;;;;;4788304;29;20179;-82
2023/01/27 13:06:18;;;;;;;3.67;1.40;;;3.30;99.90;;;;;;4787297;29;20180;-80
2023/01/27 13:08:48;;;;;;;3.30;0.90;;;3.30;99.90;;;;;;4786491;30;20243;-80
2023/01/27 13:11:15;;;;;;;4.43;1.40;;;3.30;99.90;;;;;;4788313;29;20580;-82
2023/01/27 13:13:50;;;;;;;3.17;0.97;;;3.30;99.90;;;;;;4788077;29;20933;-80
2023/01/27 13:16:48;;;;;;;5.53;1.27;;;3.30;99.90;;;;;;4788666;29;20178;-81
2023/01/27 13:19:16;;;;;;;4.17;1.00;;;3.40;99.90;;;;;;4787728;29;20211;-81
2023/01/27 13:21:45;;;;;;;4.70;1.33;;;3.30;99.90;;;;;;4786832;29;20187;-81
2023/01/27 13:24:26;;;;;;;4.50;1.10;;;3.30;99.90;;;;;;4787491;29;20258;-80
2023/01/27 13:26:54;;;;;;;5.10;2.43;;;3.30;99.90;;;;;;4783764;30;20286;-80
2023/01/27 13:29:30;;;;;;;3.63;1.10;;;3.30;99.90;;;;;;4787932;29;20187;-81
2023/01/27 13:32:23;;;;;;;3.13;0.77;;;3.30;99.90;;;;;;4788082;29;20639;-79
2023/01/27 13:34:59;;;;;;;2.57;0.83;;;3.40;99.90;;;;;;4786846;30;20231;-81
2023/01/27 13:37:42;;;;;;;3.67;1.03;;;3.30;99.90;;;;;;4788087;29;20202;-81
2023/01/27 13:40:11;;;;;;;5.47;1.20;;;3.40;99.90;;;;;;4790744;29;20256;-83
2023/01/27 13:42:37;;;;;;;6.30;0.90;;;3.30;99.90;;;;;;4791414;29;20175;-79
2023/01/27 13:45:10;;;;;;;1.63;0.90;;;3.40;99.90;;;;;;4791763;29;20184;-81
2023/01/27 13:47:57;;;;;;;1.50;0.70;;;3.40;99.90;;;;;;4777796;30;20266;-81